Time;durP1;ratioP1;P1;durP2;ratioP2;P2;SDS_P1;SDS_P2;PMS_P1;PMS_P2;Temp;Humidity;BMP_temperature;BMP_pressure;BME280_temperature;BME280_humidity;BME280_pressure;Samples;Min_cycle;Max_cycle;Signal;HPM_P1;HPM_P2
2021/04/08 00:00:10;;;;;;;2.28;2.17;;;;;;;1.09;100.00;100508.47;4973216;28;20137;-75
2021/04/08 00:03:14;;;;;;;1.90;1.75;;;;;;;0.99;100.00;100512.03;4971475;28;20048;-74
2021/04/08 00:06:17;;;;;;;3.63;1.80;;;;;;;0.93;100.00;100505.41;4971964;28;20057;-75
2021/04/08 00:09:22;;;;;;;2.22;2.00;;;;;;;0.91;100.00;100504.97;4974499;28;20160;-74
2021/04/08 00:12:25;;;;;;;4.60;2.65;;;;;;;0.87;100.00;100506.94;4975238;28;20719;-75
2021/04/08 00:15:29;;;;;;;2.33;2.13;;;;;;;0.83;100.00;100511.66;4971159;28;21008;-75
2021/04/08 00:18:33;;;;;;;1.55;1.55;;;;;;;0.75;100.00;100510.09;4970746;28;20041;-75
2021/04/08 00:21:37;;;;;;;2.25;1.88;;;;;;;0.65;100.00;100510.91;4971443;28;20049;-76
2021/04/08 00:24:40;;;;;;;5.47;1.60;;;;;;;0.59;100.00;100518.72;4970900;28;20061;-75
2021/04/08 00:27:45;;;;;;;2.67;1.92;;;;;;;0.56;100.00;100496.81;4972945;28;21105;-76
2021/04/08 00:30:49;;;;;;;1.38;1.27;;;;;;;0.53;100.00;100503.06;4979957;28;20049;-76
2021/04/08 00:33:53;;;;;;;1.48;1.38;;;;;;;0.50;100.00;100501.09;4960483;28;20048;-75
2021/04/08 00:36:57;;;;;;;8.23;2.45;;;;;;;0.47;100.00;100485.47;4967949;28;20049;-75
2021/04/08 00:40:01;;;;;;;12.40;2.80;;;;;;;0.51;100.00;100483.50;4968875;28;20069;-75
2021/04/08 00:43:04;;;;;;;4.95;1.92;;;;;;;0.56;100.00;100492.09;4977381;28;20042;-75
2021/04/08 00:46:08;;;;;;;1.77;1.67;;;;;;;0.65;100.00;100494.47;4970104;28;20690;-75
2021/04/08 00:49:11;;;;;;;9.40;2.38;;;;;;;0.74;100.00;100489.34;4969414;28;20061;-75
2021/04/08 00:52:15;;;;;;;2.33;1.70;;;;;;;0.81;100.00;100475.63;4980682;28;20065;-75
2021/04/08 00:55:21;;;;;;;1.52;1.52;;;;;;;0.89;100.00;100479.91;4967624;28;20062;-76
2021/04/08 00:58:25;;;;;;;1.75;1.70;;;;;;;0.95;100.00;100481.09;4963552;28;20065;-76
2021/04/08 01:01:30;;;;;;;1.90;1.73;;;;;;;1.03;100.00;100477.16;4950947;28;20175;-74
2021/04/08 01:04:34;;;;;;;1.63;1.58;;;;;;;1.05;100.00;100463.81;4953278;28;20642;-75
2021/04/08 01:07:39;;;;;;;3.65;2.72;;;;;;;1.06;100.00;100459.91;4961834;28;20112;-75
2021/04/08 01:10:44;;;;;;;1.25;1.20;;;;;;;1.09;100.00;100470.09;4959667;28;20057;-74
2021/04/08 01:13:49;;;;;;;1.88;1.67;;;;;;;1.10;100.00;100466.19;4990540;28;20057;-76
2021/04/08 01:17:16;;;;;;;1.00;1.00;;;;;;;1.15;100.00;100463.00;4990454;28;20049;-76
2021/04/08 01:20:44;;;;;;;1.13;1.13;;;;;;;1.18;100.00;100466.91;4990091;28;20521;-76
2021/04/08 01:24:20;;;;;;;1.02;1.02;;;;;;;1.21;100.00;100461.41;4990432;28;20053;-76
2021/04/08 01:27:33;;;;;;;1.50;1.50;;;;;;;1.26;100.00;100452.00;4989733;28;20065;-75
2021/04/08 01:30:51;;;;;;;2.22;2.13;;;;;;;1.31;100.00;100446.88;4990346;28;20049;-75
2021/04/08 01:34:07;;;;;;;8.52;1.98;;;;;;;1.33;100.00;100441.00;4990227;28;20054;-75
2021/04/08 01:37:11;;;;;;;1.50;1.40;;;;;;;1.33;100.00;100436.28;4990346;28;20073;-76
2021/04/08 01:40:17;;;;;;;1.65;1.52;;;;;;;1.29;100.00;100434.75;4990181;28;20053;-75
2021/04/08 01:43:24;;;;;;;5.20;2.22;;;;;;;1.25;100.00;100436.72;4993636;28;20053;-75
2021/04/08 01:46:28;;;;;;;1.88;1.40;;;;;;;1.23;100.00;100442.63;4996624;28;20061;-75
2021/04/08 01:49:34;;;;;;;1.85;1.70;;;;;;;1.22;100.00;100430.06;4996726;28;20061;-75
2021/04/08 01:52:47;;;;;;;1.42;1.42;;;;;;;1.25;100.00;100440.25;4996875;28;20069;-75
2021/04/08 01:55:54;;;;;;;1.83;1.67;;;;;;;1.25;100.00;100434.78;4996326;28;20069;-75
2021/04/08 01:58:59;;;;;;;3.60;2.08;;;;;;;1.24;100.00;100427.72;5006575;28;20441;-75
2021/04/08 02:02:04;;;;;;;1.00;1.00;;;;;;;1.26;100.00;100425.34;5016399;28;20061;-75
2021/04/08 02:05:13;;;;;;;12.55;1.50;;;;;;;1.28;100.00;100425.72;5015887;28;20065;-75
2021/04/08 02:08:18;;;;;;;1.50;1.40;;;;;;;1.29;100.00;100427.31;5016159;28;20061;-75
2021/04/08 02:11:25;;;;;;;1.45;1.45;;;;;;;1.34;100.00;100415.91;5015648;28;20060;-75
2021/04/08 02:14:29;;;;;;;2.03;1.95;;;;;;;1.38;100.00;100411.19;5016365;28;20077;-75
2021/04/08 02:17:35;;;;;;;2.47;1.77;;;;;;;1.39;100.00;100404.50;5015799;28;20065;-75
2021/04/08 02:20:41;;;;;;;2.17;2.08;;;;;;;1.43;100.00;100416.25;5016128;28;20077;-75
2021/04/08 02:23:46;;;;;;;2.08;1.92;;;;;;;1.48;100.00;100406.81;5016519;28;20052;-75
2021/04/08 02:26:51;;;;;;;3.88;1.23;;;;;;;1.53;100.00;100411.91;5015145;28;20060;-75
2021/04/08 02:29:54;;;;;;;1.13;1.13;;;;;;;1.56;100.00;100405.59;5015464;28;20121;-74
2021/04/08 02:32:58;;;;;;;1.48;1.48;;;;;;;1.61;100.00;100390.66;5015984;28;20437;-74
2021/04/08 02:36:02;;;;;;;2.40;2.20;;;;;;;1.64;100.00;100396.16;5015850;28;20057;-74
2021/04/08 02:39:08;;;;;;;1.20;1.20;;;;;;;1.70;100.00;100393.75;5015644;28;20069;-75
2021/04/08 02:42:12;;;;;;;2.28;1.20;;;;;;;1.71;100.00;100390.59;5013750;28;20406;-74
2021/04/08 02:45:16;;;;;;;1.25;1.25;;;;;;;1.76;100.00;100387.41;5016299;28;20057;-74
2021/04/08 02:48:22;;;;;;;2.40;2.17;;;;;;;1.80;100.00;100387.41;5016049;28;20142;-74
2021/04/08 02:51:52;;;;;;;1.50;1.45;;;;;;;1.85;100.00;100379.50;5016877;28;20151;-74
2021/04/08 02:55:18;;;;;;;3.50;1.10;;;;;;;1.87;100.00;100366.16;5013382;28;20053;-74
2021/04/08 02:58:28;;;;;;;1.40;1.30;;;;;;;1.91;100.00;100363.38;5007911;28;20057;-74
2021/04/08 03:01:35;;;;;;;1.35;1.35;;;;;;;1.91;100.00;100361.41;4992997;28;20053;-74
2021/04/08 03:04:45;;;;;;;4.28;1.42;;;;;;;1.92;100.00;100356.72;4993674;28;20077;-74
2021/04/08 03:07:53;;;;;;;0.95;0.95;;;;;;;1.98;100.00;100352.34;4993552;28;20417;-74
2021/04/08 03:11:00;;;;;;;1.38;1.15;;;;;;;2.04;100.00;100348.75;4993795;28;20446;-74
2021/04/08 03:14:08;;;;;;;1.20;1.20;;;;;;;2.12;100.00;100342.00;4993729;28;20049;-74
2021/04/08 03:17:17;;;;;;;2.70;2.15;;;;;;;2.21;100.00;100341.53;4993475;28;20053;-74
2021/04/08 03:20:21;;;;;;;1.42;1.42;;;;;;;2.25;100.00;100342.31;4992694;28;20052;-74
2021/04/08 03:23:26;;;;;;;1.55;1.55;;;;;;;2.28;100.00;100344.22;4993622;28;20525;-74
2021/04/08 03:26:31;;;;;;;1.40;1.30;;;;;;;2.32;100.00;100344.97;4993546;28;20065;-74
2021/04/08 03:29:40;;;;;;;1.30;1.30;;;;;;;2.34;100.00;100339.84;4993617;28;20061;-74
2021/04/08 03:32:44;;;;;;;1.05;1.05;;;;;;;2.40;100.00;100338.22;5003860;28;20069;-74
2021/04/08 03:35:48;;;;;;;1.52;1.52;;;;;;;2.46;100.00;100333.84;4993336;28;20426;-74
2021/04/08 03:38:53;;;;;;;0.82;0.82;;;;;;;2.47;100.00;100316.13;4999789;28;20518;-74
2021/04/08 03:41:57;;;;;;;1.48;1.38;;;;;;;2.51;100.00;100322.41;5002641;28;20048;-74
2021/04/08 03:45:03;;;;;;;1.00;1.00;;;;;;;2.52;100.00;100323.16;5002224;28;20076;-74
2021/04/08 03:48:09;;;;;;;1.77;1.67;;;;;;;2.52;100.00;100323.16;4997967;28;20097;-75
2021/04/08 03:51:14;;;;;;;1.42;1.35;;;;;;;2.51;100.00;100321.63;5004045;28;20050;-74
2021/04/08 03:54:18;;;;;;;1.02;1.02;;;;;;;2.49;100.00;100313.75;5007453;28;20057;-75
2021/04/08 03:57:24;;;;;;;1.05;1.05;;;;;;;2.48;100.00;100312.22;5012682;28;20061;-74
2021/04/08 04:00:27;;;;;;;1.20;1.20;;;;;;;2.50;100.00;100309.03;4993161;28;20061;-75
2021/04/08 04:03:31;;;;;;;1.95;1.42;;;;;;;2.50;100.00;100304.34;4992599;28;20061;-75
2021/04/08 04:06:37;;;;;;;1.35;1.25;;;;;;;2.52;100.00;100312.94;4992563;28;20073;-75
2021/04/08 04:09:40;;;;;;;1.63;1.45;;;;;;;2.53;100.00;100300.00;4992946;28;20438;-74
2021/04/08 04:12:45;;;;;;;2.28;0.93;;;;;;;2.52;100.00;100288.22;4992717;28;20109;-74
2021/04/08 04:15:50;;;;;;;1.52;1.52;;;;;;;2.55;100.00;100290.16;4992355;28;20077;-75
2021/04/08 04:18:53;;;;;;;1.35;1.33;;;;;;;2.59;100.00;100296.38;4992460;28;20077;-74
2021/04/08 04:21:57;;;;;;;0.93;0.93;;;;;;;2.61;100.00;100291.25;4992295;28;20057;-74
2021/04/08 04:25:00;;;;;;;10.43;1.23;;;;;;;2.64;100.00;100282.16;4991889;28;20053;-74
2021/04/08 04:28:04;;;;;;;0.80;0.80;;;;;;;2.68;100.00;100285.66;4992354;28;20058;-74
2021/04/08 04:31:07;;;;;;;1.73;1.63;;;;;;;2.70;100.00;100280.53;4992193;28;20058;-74
2021/04/08 04:34:10;;;;;;;1.17;1.17;;;;;;;2.70;100.00;100274.25;4992059;28;20057;-75
2021/04/08 04:37:14;;;;;;;0.93;0.85;;;;;;;2.70;100.00;100272.28;4991820;28;20399;-75
2021/04/08 04:40:18;;;;;;;25.10;2.05;;;;;;;2.70;100.00;100274.25;4990721;28;20058;-75
2021/04/08 04:43:21;;;;;;;1.77;1.67;;;;;;;2.70;100.00;100269.53;4992132;28;20050;-75
2021/04/08 04:46:25;;;;;;;1.55;1.45;;;;;;;2.69;100.00;100267.97;4992003;28;20454;-75
2021/04/08 04:49:28;;;;;;;1.02;1.02;;;;;;;2.68;100.00;100266.44;4991148;28;20062;-75
2021/04/08 04:52:32;;;;;;;1.50;1.50;;;;;;;2.70;100.00;100274.25;4992000;28;20057;-75
2021/04/08 04:55:36;;;;;;;2.28;1.67;;;;;;;2.67;100.00;100264.84;4991596;28;20050;-74
2021/04/08 04:58:40;;;;;;;5.93;1.90;;;;;;;2.67;100.00;100264.06;4998797;28;20121;-75
2021/04/08 05:01:43;;;;;;;1.35;1.25;;;;;;;2.67;100.00;100267.59;5011319;28;20057;-75
2021/04/08 05:04:47;;;;;;;1.63;1.52;;;;;;;2.66;100.00;100257.81;5010973;28;20061;-75
2021/04/08 05:07:50;;;;;;;1.00;1.00;;;;;;;2.68;100.00;100268.38;5011105;28;20121;-75
2021/04/08 05:10:53;;;;;;;1.95;1.55;;;;;;;2.68;100.00;100260.94;5011203;28;20525;-75
2021/04/08 05:13:57;;;;;;;2.70;2.00;;;;;;;2.70;100.00;100266.78;5011148;28;20061;-75
2021/04/08 05:17:00;;;;;;;1.63;1.63;;;;;;;2.73;100.00;100268.69;5010618;28;20053;-75
2021/04/08 05:20:05;;;;;;;1.50;1.50;;;;;;;2.74;100.00;100264.78;5011015;28;20057;-74
2021/04/08 05:23:08;;;;;;;1.35;1.33;;;;;;;2.79;100.00;100260.78;5010725;28;20052;-75
2021/04/08 05:26:12;;;;;;;1.30;1.30;;;;;;;2.80;100.00;100262.31;5010682;28;20073;-75
2021/04/08 05:29:15;;;;;;;1.65;1.63;;;;;;;2.82;100.00;100265.44;5010701;28;20053;-74
2021/04/08 05:32:18;;;;;;;1.70;1.60;;;;;;;2.83;100.00;100267.81;5010329;28;20053;-75
2021/04/08 05:35:22;;;;;;;24.95;1.73;;;;;;;2.84;100.00;100258.34;5010892;28;20529;-74
2021/04/08 05:38:25;;;;;;;1.63;1.52;;;;;;;2.83;100.00;100256.81;5010057;28;20046;-75
2021/04/08 05:41:29;;;;;;;8.95;3.03;;;;;;;2.84;100.00;100257.56;5010791;28;20065;-75
2021/04/08 05:44:32;;;;;;;2.65;1.58;;;;;;;2.84;100.00;100258.34;5009885;28;20053;-75
2021/04/08 05:47:36;;;;;;;2.05;2.00;;;;;;;2.84;100.00;100258.34;5009826;28;20077;-75
2021/04/08 05:50:41;;;;;;;2.05;1.95;;;;;;;2.85;100.00;100254.41;5011043;28;20430;-75
2021/04/08 05:53:44;;;;;;;3.20;1.80;;;;;;;2.87;100.00;100257.53;4990926;28;20126;-75
2021/04/08 05:56:48;;;;;;;3.13;1.77;;;;;;;2.87;100.00;100240.25;4990027;28;20053;-74
2021/04/08 05:59:51;;;;;;;1.70;1.45;;;;;;;2.89;100.00;100246.88;5008078;28;20057;-74
2021/04/08 06:02:55;;;;;;;3.40;1.60;;;;;;;2.94;100.00;100246.44;5010312;28;20073;-75
2021/04/08 06:05:59;;;;;;;1.55;1.45;;;;;;;2.99;100.00;100239.66;5010466;28;20061;-76
2021/04/08 06:09:03;;;;;;;1.50;1.45;;;;;;;3.08;100.00;100251.72;5020381;28;20049;-76
2021/04/08 06:12:09;;;;;;;3.95;1.95;;;;;;;3.18;100.00;100249.22;5008850;28;20053;-76
2021/04/08 06:15:13;;;;;;;1.80;1.70;;;;;;;3.29;100.00;100227.84;5010245;28;20053;-77
2021/04/08 06:18:17;;;;;;;2.20;1.75;;;;;;;3.39;100.00;100243.41;5010095;28;20053;-76
2021/04/08 06:21:21;;;;;;;5.45;2.22;;;;;;;3.44;100.00;100243.72;5009721;28;20053;-76
2021/04/08 06:24:24;;;;;;;2.00;1.25;;;;;;;3.56;100.00;100250.59;5009809;28;20060;-76
2021/04/08 06:27:30;;;;;;;1.08;1.08;;;;;;;3.63;100.00;100253.22;5008830;28;20060;-75
2021/04/08 06:30:33;;;;;;;1.35;1.35;;;;;;;3.67;100.00;100249.22;5022173;28;20525;-76
2021/04/08 06:33:37;;;;;;;1.27;1.27;;;;;;;3.71;100.00;100243.66;5012603;28;20057;-75
2021/04/08 06:36:41;;;;;;;1.20;1.13;;;;;;;3.81;100.00;100248.97;5011553;28;20056;-76
2021/04/08 06:39:45;;;;;;;1.42;1.42;;;;;;;3.94;100.00;100246.41;5011919;28;20064;-76
2021/04/08 06:42:53;;;;;;;1.10;1.10;;;;;;;4.06;100.00;100248.53;5011976;28;20077;-76
2021/04/08 06:45:58;;;;;;;1.25;1.25;;;;;;;4.07;100.00;100252.81;5011792;28;20056;-76
2021/04/08 06:49:38;;;;;;;7.13;2.65;;;;;;;4.03;100.00;100249.38;5011833;28;20057;-75
2021/04/08 06:52:43;;;;;;;1.33;1.25;;;;;;;3.93;100.00;100241.28;5011823;28;20496;-76
2021/04/08 06:55:47;;;;;;;1.52;1.42;;;;;;;3.88;100.00;100248.06;5011598;28;20619;-76
2021/04/08 06:58:51;;;;;;;1.55;1.45;;;;;;;3.84;100.00;100241.84;5002783;28;20366;-75
2021/04/08 07:01:55;;;;;;;4.35;1.50;;;;;;;3.90;100.00;100234.66;5001561;28;20048;-76
2021/04/08 07:04:59;;;;;;;1.13;1.13;;;;;;;4.00;100.00;100235.66;5011458;28;20426;-75
2021/04/08 07:08:02;;;;;;;2.25;1.13;;;;;;;4.20;100.00;100239.22;5006486;28;20089;-76
2021/04/08 07:11:06;;;;;;;1.95;1.42;;;;;;;4.34;100.00;100230.66;5010940;28;20061;-75
2021/04/08 07:14:11;;;;;;;3.70;2.45;;;;;;;4.55;100.00;100230.22;5012398;28;20052;-75
2021/04/08 07:17:14;;;;;;;4.25;1.42;;;;;;;4.66;100.00;100235.56;5012552;28;20057;-76
2021/04/08 07:20:17;;;;;;;1.00;1.00;;;;;;;4.73;100.00;100238.13;5011933;28;20061;-76
2021/04/08 07:23:22;;;;;;;6.30;1.75;;;;;;;4.82;100.00;100233.63;5012500;28;20053;-76
2021/04/08 07:26:25;;;;;;;1.45;1.35;;;;;;;4.95;100.00;100231.75;5010364;28;20056;-76
2021/04/08 07:29:40;;;;;;;5.03;1.85;;;;;;;5.20;100.00;100222.88;5012227;28;20057;-76
2021/04/08 07:32:56;;;;;;;1.17;1.17;;;;;;;5.29;100.00;100218.31;5012889;28;20418;-75
2021/04/08 07:36:00;;;;;;;2.30;0.85;;;;;;;5.35;100.00;100218.56;5012650;28;20402;-75
2021/04/08 07:39:06;;;;;;;2.17;1.40;;;;;;;5.41;100.00;100224.38;5011512;28;20049;-75
2021/04/08 07:42:16;;;;;;;2.03;1.50;;;;;;;5.50;100.00;100228.06;5022477;28;20044;-76
2021/04/08 07:45:26;;;;;;;2.58;1.35;;;;;;;5.67;100.00;100223.34;5011975;28;20057;-76
2021/04/08 07:48:33;;;;;;;2.15;1.10;;;;;;;5.69;100.00;100221.69;4999029;28;20061;-75
2021/04/08 07:51:36;;;;;;;2.40;1.52;;;;;;;5.71;100.00;100222.03;4993179;28;20077;-75
2021/04/08 07:54:40;;;;;;;1.13;1.02;;;;;;;5.77;100.00;100213.97;4992815;28;20073;-76
2021/04/08 07:58:06;;;;;;;1.40;0.70;;;;;;;5.90;100.00;100212.88;4992610;28;20140;-75
2021/04/08 08:01:21;;;;;;;6.20;1.48;;;;;;;6.08;100.00;100212.41;4992703;28;20073;-76
2021/04/08 08:04:26;;;;;;;0.85;0.85;;;;;;;6.20;100.00;100214.44;4992004;28;20069;-75
2021/04/08 08:07:29;;;;;;;2.03;1.48;;;;;;;6.44;100.00;100198.34;4992351;28;20510;-75
2021/04/08 08:10:33;;;;;;;0.88;0.88;;;;;;;6.75;100.00;100202.19;5002594;28;20057;-75
2021/04/08 08:13:39;;;;;;;0.80;0.80;;;;;;;7.05;100.00;100204.41;4992185;28;20061;-75
2021/04/08 08:17:02;;;;;;;1.05;0.80;;;;;;;7.21;100.00;100198.75;4992546;28;20131;-75
2021/04/08 08:20:07;;;;;;;0.95;0.77;;;;;;;7.17;100.00;100189.78;4992574;28;20057;-75
2021/04/08 08:23:12;;;;;;;1.13;0.98;;;;;;;7.17;100.00;100187.00;4992416;28;20057;-75
2021/04/08 08:26:31;;;;;;;1.13;1.10;;;;;;;7.51;100.00;100200.94;4992262;28;20053;-74
2021/04/08 08:29:35;;;;;;;1.55;1.23;;;;;;;7.68;100.00;100198.03;4990865;28;20057;-75
2021/04/08 08:32:39;;;;;;;8.70;1.23;;;;;;;7.80;100.00;100186.09;4992227;28;20069;-75
2021/04/08 08:35:43;;;;;;;2.92;1.25;;;;;;;7.81;100.00;100191.22;4992115;28;20061;-75
2021/04/08 08:38:46;;;;;;;5.05;1.52;;;;;;;7.88;100.00;100179.13;4991863;28;20530;-75
2021/04/08 08:41:51;;;;;;;7.85;1.25;;;;;;;7.90;100.00;100183.00;4991895;28;20058;-75
2021/04/08 08:44:58;;;;;;;2.55;1.15;;;;;;;8.12;100.00;100178.22;4991576;28;20061;-75
2021/04/08 08:48:06;;;;;;;3.35;1.10;;;;;;;8.23;100.00;100172.28;4991527;28;20057;-75
2021/04/08 08:51:10;;;;;;;1.73;1.13;;;;;;;8.19;100.00;100177.19;4991540;28;20061;-74
2021/04/08 08:54:13;;;;;;;0.40;0.40;;;;;;;8.29;100.00;100176.81;4991166;28;20077;-75
2021/04/08 08:57:18;;;;;;;0.55;0.50;;;;;;;8.41;100.00;100166.91;4991880;28;20411;-75
2021/04/08 09:00:24;;;;;;;5.00;1.13;;;;;;;8.35;100.00;100163.16;4991715;28;20061;-74
2021/04/08 09:03:27;;;;;;;0.65;0.65;;;;;;;8.23;100.00;100166.72;4990606;28;20057;-75
2021/04/08 09:06:32;;;;;;;6.18;0.77;;;;;;;8.25;100.00;100164.31;4991477;28;20053;-74
2021/04/08 09:09:39;;;;;;;1.17;0.98;;;;;;;8.43;100.00;100156.13;4991694;28;20053;-75
2021/04/08 09:12:42;;;;;;;0.85;0.40;;;;;;;8.65;100.00;100148.53;4990643;28;20054;-74
2021/04/08 09:15:46;;;;;;;4.57;1.02;;;;;;;8.75;100.00;100141.78;4991049;28;20065;-75
2021/04/08 09:19:01;;;;;;;2.00;0.85;;;;;;;8.94;100.00;100140.63;4991404;28;20515;-75
2021/04/08 09:22:10;;;;;;;1.40;0.52;;;;;;;9.21;100.00;100128.06;4991376;28;20069;-76
2021/04/08 09:25:16;;;;;;;0.75;0.38;;;;;;;9.41;100.00;100131.19;4991666;28;20061;-75
2021/04/08 09:28:20;;;;;;;0.17;0.17;;;;;;;9.62;100.00;100116.38;4990746;28;20085;-76
2021/04/08 09:31:25;;;;;;;0.57;0.32;;;;;;;9.89;100.00;100113.63;4991483;28;20053;-76
2021/04/08 09:34:28;;;;;;;7.40;0.65;;;;;;;10.09;100.00;100102.75;4991238;28;20065;-76
2021/04/08 09:37:44;;;;;;;0.80;0.55;;;;;;;9.96;100.00;100116.09;4991368;28;20419;-76
2021/04/08 09:40:48;;;;;;;0.20;0.20;;;;;;;9.72;100.00;100112.38;4991192;28;20104;-76
2021/04/08 09:43:52;;;;;;;5.47;0.65;;;;;;;9.74;100.00;100121.81;4991232;28;20073;-76
2021/04/08 09:47:00;;;;;;;0.20;0.20;;;;;;;9.73;100.00;100125.03;4991011;28;20069;-76
2021/04/08 09:50:04;;;;;;;0.35;0.35;;;;;;;9.64;100.00;100122.25;4991168;28;20061;-76
2021/04/08 09:53:07;;;;;;;2.47;0.32;;;;;;;9.50;100.00;100122.88;4991134;28;20521;-76
2021/04/08 09:56:11;;;;;;;4.40;0.32;;;;;;;9.58;100.00;100119.31;4990952;28;20054;-76
2021/04/08 09:59:15;;;;;;;0.73;0.50;;;;;;;10.00;100.00;100116.69;5003363;28;20410;-76
2021/04/08 10:02:19;;;;;;;5.97;0.38;;;;;;;10.27;100.00;100116.69;5010146;28;20251;-75
2021/04/08 10:05:22;;;;;;;1.77;1.00;;;;;;;10.51;100.00;100111.19;5014022;28;20065;-73
2021/04/08 10:08:34;;;;;;;1.38;0.45;;;;;;;10.70;100.00;100106.34;5014520;28;20057;-74
2021/04/08 10:11:38;;;;;;;6.75;1.27;;;;;;;10.70;100.00;100089.66;5014634;28;20054;-77
2021/04/08 10:14:42;;;;;;;2.28;0.68;;;;;;;10.46;100.00;100098.69;5014262;28;20049;-78
2021/04/08 10:17:46;;;;;;;1.38;0.40;;;;;;;10.15;100.00;100094.59;5013513;28;20521;-79
2021/04/08 10:20:52;;;;;;;10.38;2.20;;;;;;;9.89;100.00;100105.25;5013854;28;20064;-78
2021/04/08 10:23:55;;;;;;;1.92;0.50;;;;;;;9.88;100.00;100093.38;5014405;28;20045;-78
2021/04/08 10:27:00;;;;;;;2.15;0.73;;;;;;;10.04;100.00;100095.06;5014124;28;20064;-78
2021/04/08 10:30:17;;;;;;;5.18;1.02;;;;;;;10.15;100.00;100095.38;5014243;28;20045;-77
2021/04/08 10:33:21;;;;;;;1.13;0.50;;;;;;;10.23;100.00;100096.59;5013505;28;20053;-78
2021/04/08 10:36:31;;;;;;;14.27;0.73;;;;;;;10.31;100.00;100085.91;5014139;28;20054;-78
2021/04/08 10:39:37;;;;;;;1.10;0.22;;;;;;;10.50;100.00;100088.16;5013636;28;20057;-78
2021/04/08 10:42:40;;;;;;;2.70;0.57;;;;;;;10.44;100.00;100084.47;5013961;28;20065;-78
2021/04/08 10:45:55;;;;;;;2.75;0.85;;;;;;;10.30;100.00;100082.34;5013166;28;20157;-78
2021/04/08 10:48:59;;;;;;;0.75;0.10;;;;;;;10.13;100.00;100081.16;4995579;28;20518;-77
2021/04/08 10:52:05;;;;;;;2.42;0.85;;;;;;;10.15;100.00;100078.69;4993112;28;20122;-76
2021/04/08 10:55:11;;;;;;;2.25;0.32;;;;;;;10.42;100.00;100070.25;4992882;28;20057;-78
2021/04/08 10:58:26;;;;;;;1.63;0.40;;;;;;;10.98;100.00;100069.50;4997449;28;20050;-77
2021/04/08 11:01:30;;;;;;;0.17;0.17;;;;;;;11.26;100.00;100078.50;5012183;28;20069;-76
2021/04/08 11:04:36;;;;;;;5.93;0.57;;;;;;;11.07;100.00;100079.84;5012594;28;20054;-77
2021/04/08 11:07:41;;;;;;;1.20;0.30;;;;;;;11.03;100.00;100074.44;5012694;28;20061;-77
2021/04/08 11:10:44;;;;;;;0.25;0.10;;;;;;;11.01;100.00;100067.81;5012389;28;20525;-76
2021/04/08 11:13:47;;;;;;;0.57;0.47;;;;;;;11.16;100.00;100060.28;5012586;28;20076;-77
2021/04/08 11:16:54;;;;;;;0.52;0.30;;;;;;;11.20;100.00;100067.22;5011307;28;20061;-77
2021/04/08 11:19:58;;;;;;;0.95;0.20;;;;;;;11.21;100.00;100063.19;5012571;28;20049;-77
2021/04/08 11:23:02;;;;;;;5.13;0.28;;;;;;;11.21;100.00;100051.28;5012615;28;20049;-78
2021/04/08 11:26:09;;;;;;;1.05;0.15;;;;;;;11.51;100.00;100052.13;5011954;28;20434;-79
2021/04/08 11:29:22;;;;;;;0.10;0.10;;;;;;;12.13;100.00;100031.25;5012301;28;20414;-78
2021/04/08 11:32:26;;;;;;;0.30;0.13;;;;;;;12.68;100.00;100044.56;5011809;28;20057;-79
2021/04/08 11:35:33;;;;;;;0.47;0.47;;;;;;;12.82;100.00;100052.91;5012039;28;20453;-78
2021/04/08 11:38:36;;;;;;;0.22;0.10;;;;;;;12.71;100.00;100046.41;5012229;28;20422;-77
2021/04/08 11:41:40;;;;;;;0.10;0.10;;;;;;;12.49;100.00;100054.44;5012146;28;20057;-79
2021/04/08 11:44:44;;;;;;;9.52;0.57;;;;;;;12.15;100.00;100051.06;5011898;28;20136;-79
2021/04/08 11:48:03;;;;;;;3.88;0.63;;;;;;;12.00;100.00;100038.38;5011803;28;20062;-79
2021/04/08 11:51:07;;;;;;;2.28;1.17;;;;;;;11.91;100.00;100032.91;5011863;28;20060;-78
2021/04/08 11:54:16;;;;;;;6.45;1.15;;;;;;;11.96;100.00;100032.97;5011897;28;20046;-79
2021/04/08 11:57:19;;;;;;;2.47;0.45;;;;;;;12.06;100.00;100033.69;5010939;28;20054;-79
2021/04/08 12:00:27;;;;;;;0.85;0.65;;;;;;;12.38;100.00;100029.13;4992650;28;20073;-79
2021/04/08 12:03:35;;;;;;;5.47;0.57;;;;;;;12.68;100.00;100038.97;5010178;28;20049;-80
2021/04/08 12:06:41;;;;;;;1.73;0.13;;;;;;;12.93;100.00;100021.53;4997563;28;20074;-80
2021/04/08 12:09:47;;;;;;;0.10;0.10;;;;;;;12.87;100.00;100015.13;4991969;28;20057;-82
2021/04/08 12:12:56;;;;;;;0.68;0.10;;;;;;;12.56;100.00;100017.72;4992020;28;20057;-81
2021/04/08 12:15:59;;;;;;;0.50;0.32;;;;;;;12.40;100.00;100024.59;5007605;28;20617;-80
2021/04/08 12:19:06;;;;;;;0.10;0.10;;;;;;;12.36;100.00;100023.25;4988327;28;20046;-81
2021/04/08 12:22:13;;;;;;;1.33;0.52;;;;;;;12.32;100.00;100017.88;4964807;28;20041;-79
2021/04/08 12:25:21;;;;;;;1.48;0.28;;;;;;;12.18;100.00;100021.44;4982581;28;20426;-81
2021/04/08 12:28:27;;;;;;;0.20;0.20;;;;;;;12.21;100.00;100014.91;4960334;28;20061;-79
2021/04/08 12:31:36;;;;;;;0.10;0.10;;;;;;;12.19;100.00;100032.09;4990810;28;20073;-79
2021/04/08 12:34:39;;;;;;;0.20;0.10;;;;;;;12.22;100.00;100029.59;4990963;28;20411;-78
2021/04/08 12:37:43;;;;;;;3.63;0.30;;;;;;;12.03;100.00;100029.03;4991519;28;20054;-79
2021/04/08 12:40:48;;;;;;;0.60;0.43;;;;;;;11.85;100.00;100038.38;4991305;28;20065;-77
2021/04/08 12:43:51;;;;;;;0.85;0.08;;;;;;;11.83;100.00;100018.53;4991331;28;20058;-79
2021/04/08 12:46:55;;;;;;;0.10;0.10;;;;;;;11.93;100.00;100022.78;4991188;28;20057;-78
2021/04/08 12:49:58;;;;;;;0.35;0.15;;;;;;;11.91;100.00;100025.28;4990212;28;20093;-81
2021/04/08 12:53:02;;;;;;;0.38;0.35;;;;;;;11.85;100.00;100016.03;4991280;28;20054;-79
2021/04/08 12:56:06;;;;;;;0.68;0.55;;;;;;;11.93;100.00;100006.03;4991342;28;20049;-78
2021/04/08 12:59:10;;;;;;;3.10;0.20;;;;;;;12.01;100.00;100010.00;5002476;28;20518;-79
2021/04/08 13:02:14;;;;;;;0.45;0.20;;;;;;;12.08;100.00;100006.78;5010549;28;20418;-78
2021/04/08 13:05:17;;;;;;;0.43;0.17;;;;;;;12.05;100.00;100013.34;5010068;28;20054;-78
2021/04/08 13:08:21;;;;;;;2.35;0.45;;;;;;;11.85;100.00;99998.53;5010408;28;20061;-79
2021/04/08 13:11:25;;;;;;;0.43;0.25;;;;;;;11.89;100.00;99983.13;5010019;28;20065;-79
2021/04/08 13:14:29;;;;;;;1.02;0.10;;;;;;;11.91;100.00;99991.03;5010305;28;20049;-80
2021/04/08 13:17:33;;;;;;;0.40;0.30;;;;;;;11.79;100.00;99981.69;5010851;28;20410;-78
2021/04/08 13:20:37;;;;;;;0.38;0.13;;;;;;;11.77;100.00;99984.19;5021011;28;20156;-81
2021/04/08 13:23:40;;;;;;;0.50;0.28;;;;;;;11.83;100.00;99978.69;5010531;28;20358;-79
2021/04/08 13:26:43;;;;;;;6.72;0.40;;;;;;;11.80;100.00;99980.44;5010232;28;20069;-79
2021/04/08 13:29:47;;;;;;;6.72;0.60;;;;;;;11.53;100.00;99986.25;5020640;28;20061;-79
2021/04/08 13:32:50;;;;;;;4.40;0.40;;;;;;;11.49;100.00;99966.16;5010068;28;20355;-79
2021/04/08 13:35:54;;;;;;;1.85;0.22;;;;;;;11.65;100.00;99964.94;5010280;28;20065;-79
2021/04/08 13:38:57;;;;;;;1.38;0.20;;;;;;;11.56;100.00;99954.63;5009789;28;20057;-79
2021/04/08 13:42:03;;;;;;;6.13;0.38;;;;;;;11.46;100.00;99955.94;5010381;28;20547;-82
2021/04/08 13:45:08;;;;;;;11.75;0.35;;;;;;;11.43;100.00;99942.97;4976035;28;20065;-81
2021/04/08 13:48:12;;;;;;;0.55;0.25;;;;;;;11.30;100.00;99943.22;5008937;28;20069;-78
2021/04/08 13:51:15;;;;;;;1.45;0.43;;;;;;;11.15;100.00;99942.44;5007258;28;20052;-78
2021/04/08 13:54:20;;;;;;;0.10;0.10;;;;;;;10.88;100.00;99928.72;5009746;28;20533;-79
2021/04/08 13:57:24;;;;;;;2.03;0.28;;;;;;;10.66;100.00;99928.25;5009265;28;20053;-79
2021/04/08 14:00:28;;;;;;;1.25;0.57;;;;;;;10.59;100.00;99934.19;4990430;28;20505;-78
2021/04/08 14:03:32;;;;;;;0.20;0.20;;;;;;;10.68;100.00;99942.47;4990106;28;20058;-78
2021/04/08 14:06:38;;;;;;;0.25;0.20;;;;;;;10.91;100.00;99927.78;4990816;28;20057;-79
2021/04/08 14:10:19;;;;;;;0.10;0.10;;;;;;;11.01;100.00;99923.69;4963078;28;20061;-79
2021/04/08 14:13:45;;;;;;;0.10;0.10;;;;;;;10.88;100.00;99922.38;4931129;28;20072;-79
2021/04/08 14:17:01;;;;;;;0.40;0.20;;;;;;;10.77;100.00;99911.78;4916536;28;20090;-81
2021/04/08 14:48:33;;;;;;;;;;;;;;;;;;;;;
2021/04/08 14:52:44;;;;;;;2.00;0.77;;;;;;;10.24;100.00;99858.78;4701497;30;19926;-80
2021/04/08 14:56:24;;;;;;;;;;;;;;;;;;;;;